This is the latest recevied weather packets stored in our database for station/object OZ1IEP-5. If no packets are shown the sender has not sent any weather packets the latest 10 day(s).
| Time | Temp. | Humidity | Pressure | Rain* | Wind** | Luminosity | Snow |
|---|---|---|---|---|---|---|---|
| 1787422806 | 15° C | 90% | 1008.5 hPa | 1.02 mm | - | 0 W/m² | - |
| 1787422206 | 15° C | 90% | 1008.4 hPa | 1.02 mm | - | 12 W/m² | - |
| 1787421608 | 15° C | 90% | 1008.4 hPa | 1.02 mm | - | 5 W/m² | - |
| 1787421006 | 15.56° C | 89% | 1008.3 hPa | 0.51 mm | - | 0 W/m² | - |
| 1787420406 | 15.56° C | 90% | 1008.3 hPa | 0 mm | - | 5 W/m² | - |
| 1787419809 | 15.56° C | 90% | 1008.3 hPa | 0 mm | - | 0 W/m² | - |
| 1787419207 | 15.56° C | 90% | 1008.2 hPa | 0 mm | - | 9 W/m² | - |
| 1787418605 | 15.56° C | 90% | 1008.1 hPa | 0.25 mm | - | 42 W/m² | - |
| 1787418009 | 15.56° C | 90% | 1008 hPa | 0.25 mm | - | 54 W/m² | - |
| 1787417406 | 15.56° C | 90% | 1007.9 hPa | 0.25 mm | - | 37 W/m² | - |
| 1787416806 | 15.56° C | 89% | 1008 hPa | 0.51 mm | - | 19 W/m² | - |
| 1787416209 | 15.56° C | 89% | 1007.9 hPa | 0.76 mm | - | 18 W/m² | - |
| 1787415606 | 15.56° C | 89% | 1007.9 hPa | 0.76 mm | - | 26 W/m² | - |
| 1787415006 | 15.56° C | 88% | 1007.8 hPa | 0.51 mm | - | 44 W/m² | - |
| 1787414411 | 15.56° C | 88% | 1007.8 hPa | 0.51 mm | - | 63 W/m² | - |
| 1787413807 | 15.56° C | 86% | 1007.8 hPa | 0.51 mm | - | 28 W/m² | - |
| 1787413206 | 16.11° C | 84% | 1007.7 hPa | 0.51 mm | - | 95 W/m² | - |
| 1787412609 | 17.22° C | 81% | 1007.6 hPa | 0 mm | - | 95 W/m² | - |
| 1787412006 | 17.78° C | 80% | 1007.3 hPa | 0 mm | - | 79 W/m² | - |
| 1787411406 | 17.78° C | 78% | 1007.2 hPa | 0 mm | - | 77 W/m² | - |
| 1787410808 | 17.78° C | 73% | 1007.2 hPa | 0 mm | - | 100 W/m² | - |
| 1787410207 | 18.33° C | 70% | 1007.2 hPa | 0 mm | - | 74 W/m² | - |
| 1787409606 | 20° C | 67% | 1007 hPa | 0 mm | - | 90 W/m² | - |
| 1787409009 | 21.11° C | 64% | 1006.7 hPa | 0 mm | - | 163 W/m² | - |
| 1787408406 | 20.56° C | 63% | 1006.7 hPa | 0 mm | - | 737 W/m² | - |
* Rain latest hour (hover to see other rain measurements)
** Current wind speed in m/s (hover to see current wind gust speed)